sensor_id;sensor_type;location;lat;lon;timestamp;P1;durP1;ratioP1;P2;durP2;ratioP2
47669;SDS011;33408;52.062;11.722;2022-09-01T00:01:12;5.82;;;1.70;;
47669;SDS011;33408;52.062;11.722;2022-09-01T00:03:43;1.88;;;1.13;;
47669;SDS011;33408;52.062;11.722;2022-09-01T00:09:34;2.08;;;0.95;;
47669;SDS011;33408;52.062;11.722;2022-09-01T00:12:02;3.88;;;1.35;;
47669;SDS011;33408;52.062;11.722;2022-09-01T00:14:32;3.10;;;1.10;;
47669;SDS011;33408;52.062;11.722;2022-09-01T00:17:03;2.58;;;1.20;;
47669;SDS011;33408;52.062;11.722;2022-09-01T00:19:33;6.35;;;1.17;;
47669;SDS011;33408;52.062;11.722;2022-09-01T00:22:00;3.85;;;1.42;;
47669;SDS011;33408;52.062;11.722;2022-09-01T00:24:27;2.92;;;1.40;;
47669;SDS011;33408;52.062;11.722;2022-09-01T00:26:54;2.97;;;1.50;;
47669;SDS011;33408;52.062;11.722;2022-09-01T00:29:21;3.53;;;1.60;;
47669;SDS011;33408;52.062;11.722;2022-09-01T00:31:49;4.78;;;1.58;;
47669;SDS011;33408;52.062;11.722;2022-09-01T00:34:16;2.63;;;1.35;;
47669;SDS011;33408;52.062;11.722;2022-09-01T00:36:46;2.83;;;1.40;;
47669;SDS011;33408;52.062;11.722;2022-09-01T00:39:13;3.80;;;1.40;;
47669;SDS011;33408;52.062;11.722;2022-09-01T00:41:40;3.67;;;1.33;;
47669;SDS011;33408;52.062;11.722;2022-09-01T00:44:09;3.58;;;1.30;;
47669;SDS011;33408;52.062;11.722;2022-09-01T00:46:39;2.47;;;1.40;;
47669;SDS011;33408;52.062;11.722;2022-09-01T00:49:08;2.45;;;1.25;;
47669;SDS011;33408;52.062;11.722;2022-09-01T00:51:38;4.72;;;1.60;;
47669;SDS011;33408;52.062;11.722;2022-09-01T00:54:10;2.25;;;1.20;;
47669;SDS011;33408;52.062;11.722;2022-09-01T00:56:39;6.30;;;1.42;;
47669;SDS011;33408;52.062;11.722;2022-09-01T00:59:07;3.35;;;1.30;;
47669;SDS011;33408;52.062;11.722;2022-09-01T01:01:35;2.78;;;1.30;;
47669;SDS011;33408;52.062;11.722;2022-09-01T01:04:02;4.35;;;1.50;;
47669;SDS011;33408;52.062;11.722;2022-09-01T01:06:29;4.25;;;1.73;;
47669;SDS011;33408;52.062;11.722;2022-09-01T01:08:57;2.53;;;1.35;;
47669;SDS011;33408;52.062;11.722;2022-09-01T01:11:27;2.63;;;1.33;;
47669;SDS011;33408;52.062;11.722;2022-09-01T01:13:57;4.53;;;1.50;;
47669;SDS011;33408;52.062;11.722;2022-09-01T01:16:30;4.55;;;1.50;;
47669;SDS011;33408;52.062;11.722;2022-09-01T01:18:59;2.65;;;1.40;;
47669;SDS011;33408;52.062;11.722;2022-09-01T01:21:28;4.20;;;1.40;;
47669;SDS011;33408;52.062;11.722;2022-09-01T01:24:23;4.88;;;1.30;;
47669;SDS011;33408;52.062;11.722;2022-09-01T01:26:51;3.13;;;1.30;;
47669;SDS011;33408;52.062;11.722;2022-09-01T01:29:18;4.38;;;1.50;;
47669;SDS011;33408;52.062;11.722;2022-09-01T01:31:46;2.22;;;1.20;;
47669;SDS011;33408;52.062;11.722;2022-09-01T01:34:14;6.28;;;1.77;;
47669;SDS011;33408;52.062;11.722;2022-09-01T01:36:41;3.28;;;1.60;;
47669;SDS011;33408;52.062;11.722;2022-09-01T01:39:10;3.33;;;1.40;;
47669;SDS011;33408;52.062;11.722;2022-09-01T01:41:41;3.83;;;1.67;;
47669;SDS011;33408;52.062;11.722;2022-09-01T01:44:13;4.63;;;1.55;;
47669;SDS011;33408;52.062;11.722;2022-09-01T01:46:41;4.10;;;1.40;;
47669;SDS011;33408;52.062;11.722;2022-09-01T01:49:10;2.90;;;1.20;;
47669;SDS011;33408;52.062;11.722;2022-09-01T01:51:39;3.25;;;1.38;;
47669;SDS011;33408;52.062;11.722;2022-09-01T01:54:06;3.53;;;1.48;;
47669;SDS011;33408;52.062;11.722;2022-09-01T01:56:33;5.32;;;1.73;;
47669;SDS011;33408;52.062;11.722;2022-09-01T01:59:05;3.45;;;1.42;;
47669;SDS011;33408;52.062;11.722;2022-09-01T02:01:32;4.18;;;1.50;;
47669;SDS011;33408;52.062;11.722;2022-09-01T02:03:59;4.55;;;1.20;;
47669;SDS011;33408;52.062;11.722;2022-09-01T02:06:30;4.07;;;1.20;;
47669;SDS011;33408;52.062;11.722;2022-09-01T02:08:58;3.70;;;1.40;;
47669;SDS011;33408;52.062;11.722;2022-09-01T02:11:27;3.30;;;1.48;;
47669;SDS011;33408;52.062;11.722;2022-09-01T02:13:57;3.20;;;1.35;;
47669;SDS011;33408;52.062;11.722;2022-09-01T02:16:27;5.88;;;1.92;;
47669;SDS011;33408;52.062;11.722;2022-09-01T02:18:57;2.75;;;1.30;;
47669;SDS011;33408;52.062;11.722;2022-09-01T02:21:24;3.72;;;1.45;;
47669;SDS011;33408;52.062;11.722;2022-09-01T02:23:53;4.50;;;1.40;;
47669;SDS011;33408;52.062;11.722;2022-09-01T02:26:24;4.93;;;1.30;;
47669;SDS011;33408;52.062;11.722;2022-09-01T02:28:55;4.35;;;1.52;;
47669;SDS011;33408;52.062;11.722;2022-09-01T02:31:27;3.17;;;1.50;;
47669;SDS011;33408;52.062;11.722;2022-09-01T02:33:53;4.63;;;1.33;;
47669;SDS011;33408;52.062;11.722;2022-09-01T02:36:20;3.50;;;1.50;;
47669;SDS011;33408;52.062;11.722;2022-09-01T02:38:49;4.63;;;1.80;;
47669;SDS011;33408;52.062;11.722;2022-09-01T02:41:16;3.80;;;1.70;;
47669;SDS011;33408;52.062;11.722;2022-09-01T02:43:45;3.35;;;1.40;;
47669;SDS011;33408;52.062;11.722;2022-09-01T02:46:12;3.75;;;1.67;;
47669;SDS011;33408;52.062;11.722;2022-09-01T02:48:42;4.18;;;1.50;;
47669;SDS011;33408;52.062;11.722;2022-09-01T02:51:11;4.63;;;1.40;;
47669;SDS011;33408;52.062;11.722;2022-09-01T02:53:40;5.30;;;1.67;;
47669;SDS011;33408;52.062;11.722;2022-09-01T02:56:10;4.55;;;1.83;;
47669;SDS011;33408;52.062;11.722;2022-09-01T02:58:38;3.47;;;1.73;;
47669;SDS011;33408;52.062;11.722;2022-09-01T03:01:10;3.47;;;1.47;;
47669;SDS011;33408;52.062;11.722;2022-09-01T03:03:38;3.05;;;1.17;;
47669;SDS011;33408;52.062;11.722;2022-09-01T03:06:06;5.43;;;1.70;;
47669;SDS011;33408;52.062;11.722;2022-09-01T03:08:34;4.82;;;1.80;;
47669;SDS011;33408;52.062;11.722;2022-09-01T03:11:03;6.05;;;1.92;;
47669;SDS011;33408;52.062;11.722;2022-09-01T03:13:32;4.70;;;1.65;;
47669;SDS011;33408;52.062;11.722;2022-09-01T03:15:58;6.75;;;1.58;;
47669;SDS011;33408;52.062;11.722;2022-09-01T03:18:25;4.15;;;1.42;;
47669;SDS011;33408;52.062;11.722;2022-09-01T03:20:52;2.95;;;1.27;;
47669;SDS011;33408;52.062;11.722;2022-09-01T03:23:20;2.70;;;1.30;;
47669;SDS011;33408;52.062;11.722;2022-09-01T03:25:49;3.08;;;1.45;;
47669;SDS011;33408;52.062;11.722;2022-09-01T03:28:16;3.88;;;1.55;;
47669;SDS011;33408;52.062;11.722;2022-09-01T03:30:43;3.45;;;1.58;;
47669;SDS011;33408;52.062;11.722;2022-09-01T03:33:13;4.90;;;1.83;;
47669;SDS011;33408;52.062;11.722;2022-09-01T03:35:42;2.85;;;1.27;;
47669;SDS011;33408;52.062;11.722;2022-09-01T03:38:10;4.38;;;1.88;;
47669;SDS011;33408;52.062;11.722;2022-09-01T03:40:39;9.90;;;1.50;;
47669;SDS011;33408;52.062;11.722;2022-09-01T03:43:07;6.45;;;1.42;;
47669;SDS011;33408;52.062;11.722;2022-09-01T03:45:38;3.67;;;1.47;;
47669;SDS011;33408;52.062;11.722;2022-09-01T03:48:06;5.45;;;1.50;;
47669;SDS011;33408;52.062;11.722;2022-09-01T03:50:34;3.55;;;1.48;;
47669;SDS011;33408;52.062;11.722;2022-09-01T03:53:03;4.40;;;1.58;;
47669;SDS011;33408;52.062;11.722;2022-09-01T03:55:31;3.13;;;1.30;;
47669;SDS011;33408;52.062;11.722;2022-09-01T03:58:00;3.78;;;1.55;;
47669;SDS011;33408;52.062;11.722;2022-09-01T04:00:32;3.25;;;1.30;;
47669;SDS011;33408;52.062;11.722;2022-09-01T04:03:00;4.13;;;1.65;;
47669;SDS011;33408;52.062;11.722;2022-09-01T04:05:29;5.18;;;1.70;;
47669;SDS011;33408;52.062;11.722;2022-09-01T04:07:59;3.88;;;1.20;;
47669;SDS011;33408;52.062;11.722;2022-09-01T04:10:28;7.97;;;2.05;;
47669;SDS011;33408;52.062;11.722;2022-09-01T04:12:55;3.13;;;1.33;;
47669;SDS011;33408;52.062;11.722;2022-09-01T04:15:25;4.57;;;1.38;;
47669;SDS011;33408;52.062;11.722;2022-09-01T04:17:52;5.18;;;1.23;;
47669;SDS011;33408;52.062;11.722;2022-09-01T04:20:34;4.13;;;1.52;;
47669;SDS011;33408;52.062;11.722;2022-09-01T04:23:12;3.92;;;1.60;;
47669;SDS011;33408;52.062;11.722;2022-09-01T04:25:51;4.22;;;1.60;;
47669;SDS011;33408;52.062;11.722;2022-09-01T04:28:19;3.53;;;1.35;;
47669;SDS011;33408;52.062;11.722;2022-09-01T04:30:52;3.60;;;1.58;;
47669;SDS011;33408;52.062;11.722;2022-09-01T04:33:21;5.45;;;1.75;;
47669;SDS011;33408;52.062;11.722;2022-09-01T04:35:49;2.80;;;1.38;;
47669;SDS011;33408;52.062;11.722;2022-09-01T04:38:19;4.78;;;1.33;;
47669;SDS011;33408;52.062;11.722;2022-09-01T04:40:46;4.45;;;1.30;;
47669;SDS011;33408;52.062;11.722;2022-09-01T04:43:14;4.97;;;1.40;;
47669;SDS011;33408;52.062;11.722;2022-09-01T04:45:41;3.85;;;1.65;;
47669;SDS011;33408;52.062;11.722;2022-09-01T04:48:11;3.40;;;1.50;;
47669;SDS011;33408;52.062;11.722;2022-09-01T04:50:39;5.57;;;1.50;;
47669;SDS011;33408;52.062;11.722;2022-09-01T04:53:06;3.85;;;1.42;;
47669;SDS011;33408;52.062;11.722;2022-09-01T04:55:37;5.07;;;1.88;;
47669;SDS011;33408;52.062;11.722;2022-09-01T04:58:08;4.32;;;1.60;;
47669;SDS011;33408;52.062;11.722;2022-09-01T05:00:37;1.75;;;1.15;;
47669;SDS011;33408;52.062;11.722;2022-09-01T05:03:04;4.72;;;1.60;;
47669;SDS011;33408;52.062;11.722;2022-09-01T05:05:36;4.75;;;1.50;;
47669;SDS011;33408;52.062;11.722;2022-09-01T05:08:06;5.43;;;1.80;;
47669;SDS011;33408;52.062;11.722;2022-09-01T05:10:37;3.70;;;1.50;;
47669;SDS011;33408;52.062;11.722;2022-09-01T05:13:05;4.05;;;1.58;;
47669;SDS011;33408;52.062;11.722;2022-09-01T05:15:34;4.65;;;1.45;;
47669;SDS011;33408;52.062;11.722;2022-09-01T05:18:02;3.78;;;1.65;;
47669;SDS011;33408;52.062;11.722;2022-09-01T05:20:36;8.95;;;1.88;;
47669;SDS011;33408;52.062;11.722;2022-09-01T05:23:06;3.22;;;1.55;;
47669;SDS011;33408;52.062;11.722;2022-09-01T05:25:36;2.58;;;1.45;;
47669;SDS011;33408;52.062;11.722;2022-09-01T05:28:03;3.55;;;1.42;;
47669;SDS011;33408;52.062;11.722;2022-09-01T05:30:30;4.53;;;1.33;;
47669;SDS011;33408;52.062;11.722;2022-09-01T05:33:00;4.07;;;1.38;;
47669;SDS011;33408;52.062;11.722;2022-09-01T05:35:27;3.85;;;1.70;;
47669;SDS011;33408;52.062;11.722;2022-09-01T05:37:56;4.90;;;1.60;;
47669;SDS011;33408;52.062;11.722;2022-09-01T05:40:23;8.77;;;1.77;;
47669;SDS011;33408;52.062;11.722;2022-09-01T05:42:50;2.70;;;1.10;;
47669;SDS011;33408;52.062;11.722;2022-09-01T05:45:20;3.85;;;1.20;;
47669;SDS011;33408;52.062;11.722;2022-09-01T05:47:47;5.93;;;1.50;;
47669;SDS011;33408;52.062;11.722;2022-09-01T05:50:14;3.38;;;1.60;;
47669;SDS011;33408;52.062;11.722;2022-09-01T05:52:43;4.32;;;1.13;;
47669;SDS011;33408;52.062;11.722;2022-09-01T05:55:13;2.08;;;1.02;;
47669;SDS011;33408;52.062;11.722;2022-09-01T05:57:40;6.80;;;1.55;;
47669;SDS011;33408;52.062;11.722;2022-09-01T06:00:08;3.08;;;1.30;;
47669;SDS011;33408;52.062;11.722;2022-09-01T06:02:39;3.20;;;1.20;;
47669;SDS011;33408;52.062;11.722;2022-09-01T06:05:07;4.63;;;1.33;;
47669;SDS011;33408;52.062;11.722;2022-09-01T06:07:35;4.90;;;1.45;;
47669;SDS011;33408;52.062;11.722;2022-09-01T06:10:05;4.50;;;1.30;;
47669;SDS011;33408;52.062;11.722;2022-09-01T06:12:34;2.95;;;1.10;;
47669;SDS011;33408;52.062;11.722;2022-09-01T06:15:00;3.50;;;1.10;;
47669;SDS011;33408;52.062;11.722;2022-09-01T06:17:27;4.10;;;1.48;;
47669;SDS011;33408;52.062;11.722;2022-09-01T06:19:55;2.65;;;1.00;;
47669;SDS011;33408;52.062;11.722;2022-09-01T06:22:23;4.32;;;1.17;;
47669;SDS011;33408;52.062;11.722;2022-09-01T06:24:51;2.92;;;0.90;;
47669;SDS011;33408;52.062;11.722;2022-09-01T06:27:18;5.20;;;1.23;;
47669;SDS011;33408;52.062;11.722;2022-09-01T06:29:46;3.20;;;0.93;;
47669;SDS011;33408;52.062;11.722;2022-09-01T06:32:15;2.38;;;0.70;;
47669;SDS011;33408;52.062;11.722;2022-09-01T06:34:43;1.45;;;0.70;;
47669;SDS011;33408;52.062;11.722;2022-09-01T06:37:15;2.72;;;0.95;;
47669;SDS011;33408;52.062;11.722;2022-09-01T06:39:46;4.85;;;0.95;;
47669;SDS011;33408;52.062;11.722;2022-09-01T06:42:13;4.22;;;1.00;;
47669;SDS011;33408;52.062;11.722;2022-09-01T06:44:41;1.27;;;0.70;;
47669;SDS011;33408;52.062;11.722;2022-09-01T06:47:09;3.33;;;0.90;;
47669;SDS011;33408;52.062;11.722;2022-09-01T06:49:36;3.67;;;0.60;;
47669;SDS011;33408;52.062;11.722;2022-09-01T06:52:04;2.30;;;0.95;;
47669;SDS011;33408;52.062;11.722;2022-09-01T06:54:30;2.80;;;1.10;;
47669;SDS011;33408;52.062;11.722;2022-09-01T06:56:59;2.78;;;0.90;;
47669;SDS011;33408;52.062;11.722;2022-09-01T06:59:27;2.80;;;0.77;;
47669;SDS011;33408;52.062;11.722;2022-09-01T07:01:55;2.42;;;0.70;;
47669;SDS011;33408;52.062;11.722;2022-09-01T07:04:26;1.80;;;1.00;;
47669;SDS011;33408;52.062;11.722;2022-09-01T07:06:54;1.85;;;0.60;;
47669;SDS011;33408;52.062;11.722;2022-09-01T07:09:21;1.92;;;0.60;;
47669;SDS011;33408;52.062;11.722;2022-09-01T07:11:48;5.72;;;1.13;;
47669;SDS011;33408;52.062;11.722;2022-09-01T07:14:15;3.92;;;1.02;;
47669;SDS011;33408;52.062;11.722;2022-09-01T07:16:43;3.25;;;0.80;;
47669;SDS011;33408;52.062;11.722;2022-09-01T07:19:11;3.60;;;0.65;;
47669;SDS011;33408;52.062;11.722;2022-09-01T07:21:40;0.90;;;0.60;;
47669;SDS011;33408;52.062;11.722;2022-09-01T07:24:08;2.25;;;0.65;;
47669;SDS011;33408;52.062;11.722;2022-09-01T07:26:36;2.72;;;0.98;;
47669;SDS011;33408;52.062;11.722;2022-09-01T07:29:03;2.17;;;0.77;;
47669;SDS011;33408;52.062;11.722;2022-09-01T07:31:31;2.55;;;0.77;;
47669;SDS011;33408;52.062;11.722;2022-09-01T07:34:02;2.13;;;0.50;;
47669;SDS011;33408;52.062;11.722;2022-09-01T07:36:30;2.75;;;0.70;;
47669;SDS011;33408;52.062;11.722;2022-09-01T07:38:58;3.60;;;0.85;;
47669;SDS011;33408;52.062;11.722;2022-09-01T07:41:25;3.55;;;0.77;;
47669;SDS011;33408;52.062;11.722;2022-09-01T07:43:53;2.15;;;0.68;;
47669;SDS011;33408;52.062;11.722;2022-09-01T07:46:21;2.83;;;0.80;;
47669;SDS011;33408;52.062;11.722;2022-09-01T07:48:50;1.63;;;0.80;;
47669;SDS011;33408;52.062;11.722;2022-09-01T07:51:20;1.42;;;0.52;;
47669;SDS011;33408;52.062;11.722;2022-09-01T07:53:47;1.20;;;0.60;;
47669;SDS011;33408;52.062;11.722;2022-09-01T07:56:16;1.70;;;0.80;;
47669;SDS011;33408;52.062;11.722;2022-09-01T07:58:47;2.42;;;0.70;;
47669;SDS011;33408;52.062;11.722;2022-09-01T08:01:15;5.40;;;0.95;;
47669;SDS011;33408;52.062;11.722;2022-09-01T08:03:43;1.23;;;0.60;;
47669;SDS011;33408;52.062;11.722;2022-09-01T08:06:12;1.45;;;0.55;;
47669;SDS011;33408;52.062;11.722;2022-09-01T08:08:43;2.45;;;0.70;;
47669;SDS011;33408;52.062;11.722;2022-09-01T08:11:16;6.10;;;1.02;;
47669;SDS011;33408;52.062;11.722;2022-09-01T08:13:44;1.92;;;0.80;;
47669;SDS011;33408;52.062;11.722;2022-09-01T08:16:11;5.68;;;0.80;;
47669;SDS011;33408;52.062;11.722;2022-09-01T08:18:38;4.35;;;1.00;;
47669;SDS011;33408;52.062;11.722;2022-09-01T08:21:09;3.13;;;0.70;;
47669;SDS011;33408;52.062;11.722;2022-09-01T08:23:39;2.58;;;1.08;;
47669;SDS011;33408;52.062;11.722;2022-09-01T08:26:07;4.72;;;0.90;;
47669;SDS011;33408;52.062;11.722;2022-09-01T08:28:36;4.50;;;0.80;;
47669;SDS011;33408;52.062;11.722;2022-09-01T08:31:05;2.35;;;0.60;;
47669;SDS011;33408;52.062;11.722;2022-09-01T08:33:32;2.88;;;1.00;;
47669;SDS011;33408;52.062;11.722;2022-09-01T08:35:59;3.35;;;1.00;;
47669;SDS011;33408;52.062;11.722;2022-09-01T08:38:26;5.47;;;1.02;;
47669;SDS011;33408;52.062;11.722;2022-09-01T08:40:54;1.92;;;0.90;;
47669;SDS011;33408;52.062;11.722;2022-09-01T08:43:24;3.10;;;1.02;;
47669;SDS011;33408;52.062;11.722;2022-09-01T08:46:04;4.03;;;0.88;;
47669;SDS011;33408;52.062;11.722;2022-09-01T08:48:38;2.13;;;0.70;;
47669;SDS011;33408;52.062;11.722;2022-09-01T08:51:10;1.98;;;0.90;;
47669;SDS011;33408;52.062;11.722;2022-09-01T08:53:41;1.65;;;0.70;;
47669;SDS011;33408;52.062;11.722;2022-09-01T08:56:12;4.70;;;1.13;;
47669;SDS011;33408;52.062;11.722;2022-09-01T08:58:43;1.02;;;0.60;;
47669;SDS011;33408;52.062;11.722;2022-09-01T09:01:14;3.60;;;1.25;;
47669;SDS011;33408;52.062;11.722;2022-09-01T09:03:56;2.13;;;0.90;;
47669;SDS011;33408;52.062;11.722;2022-09-01T09:06:33;4.25;;;0.95;;
47669;SDS011;33408;52.062;11.722;2022-09-01T09:09:05;2.30;;;1.08;;
47669;SDS011;33408;52.062;11.722;2022-09-01T09:11:38;4.28;;;0.80;;
47669;SDS011;33408;52.062;11.722;2022-09-01T09:14:17;1.07;;;0.60;;
47669;SDS011;33408;52.062;11.722;2022-09-01T09:16:56;2.42;;;0.63;;
47669;SDS011;33408;52.062;11.722;2022-09-01T09:19:23;0.73;;;0.40;;
47669;SDS011;33408;52.062;11.722;2022-09-01T09:21:54;1.38;;;0.70;;
47669;SDS011;33408;52.062;11.722;2022-09-01T09:24:25;5.55;;;0.93;;
47669;SDS011;33408;52.062;11.722;2022-09-01T09:27:11;2.40;;;0.80;;
47669;SDS011;33408;52.062;11.722;2022-09-01T09:29:42;2.77;;;0.80;;
47669;SDS011;33408;52.062;11.722;2022-09-01T09:32:11;4.93;;;0.80;;
47669;SDS011;33408;52.062;11.722;2022-09-01T09:34:38;2.78;;;0.60;;
47669;SDS011;33408;52.062;11.722;2022-09-01T09:37:16;4.72;;;1.15;;
47669;SDS011;33408;52.062;11.722;2022-09-01T09:40:00;2.10;;;0.60;;
47669;SDS011;33408;52.062;11.722;2022-09-01T09:42:34;2.63;;;0.80;;
47669;SDS011;33408;52.062;11.722;2022-09-01T09:45:04;3.90;;;0.57;;
47669;SDS011;33408;52.062;11.722;2022-09-01T09:47:35;1.77;;;0.63;;
47669;SDS011;33408;52.062;11.722;2022-09-01T09:50:12;8.02;;;1.08;;
47669;SDS011;33408;52.062;11.722;2022-09-01T09:52:42;2.03;;;0.75;;
47669;SDS011;33408;52.062;11.722;2022-09-01T09:55:17;4.75;;;0.88;;
47669;SDS011;33408;52.062;11.722;2022-09-01T09:57:47;11.43;;;1.10;;
47669;SDS011;33408;52.062;11.722;2022-09-01T10:00:17;4.13;;;0.80;;
47669;SDS011;33408;52.062;11.722;2022-09-01T10:02:51;1.93;;;0.80;;
47669;SDS011;33408;52.062;11.722;2022-09-01T10:05:28;3.63;;;0.80;;
47669;SDS011;33408;52.062;11.722;2022-09-01T10:08:00;1.65;;;0.65;;
47669;SDS011;33408;52.062;11.722;2022-09-01T10:10:29;1.02;;;0.50;;
47669;SDS011;33408;52.062;11.722;2022-09-01T10:13:02;1.05;;;0.50;;
47669;SDS011;33408;52.062;11.722;2022-09-01T10:15:33;0.77;;;0.50;;
47669;SDS011;33408;52.062;11.722;2022-09-01T10:18:03;2.42;;;0.98;;
47669;SDS011;33408;52.062;11.722;2022-09-01T10:22:59;1.30;;;0.50;;
47669;SDS011;33408;52.062;11.722;2022-09-01T10:25:27;6.03;;;0.90;;
47669;SDS011;33408;52.062;11.722;2022-09-01T10:28:01;2.80;;;0.80;;
47669;SDS011;33408;52.062;11.722;2022-09-01T10:30:35;1.60;;;0.55;;
47669;SDS011;33408;52.062;11.722;2022-09-01T10:33:08;1.83;;;0.52;;
47669;SDS011;33408;52.062;11.722;2022-09-01T10:35:36;1.70;;;0.60;;
47669;SDS011;33408;52.062;11.722;2022-09-01T10:38:07;0.73;;;0.55;;
47669;SDS011;33408;52.062;11.722;2022-09-01T10:40:37;0.75;;;0.45;;
47669;SDS011;33408;52.062;11.722;2022-09-01T10:43:21;3.30;;;0.70;;
47669;SDS011;33408;52.062;11.722;2022-09-01T10:45:55;1.23;;;0.60;;
47669;SDS011;33408;52.062;11.722;2022-09-01T10:48:23;1.60;;;0.60;;
47669;SDS011;33408;52.062;11.722;2022-09-01T10:50:54;2.90;;;0.60;;
47669;SDS011;33408;52.062;11.722;2022-09-01T10:53:58;1.63;;;0.68;;
47669;SDS011;33408;52.062;11.722;2022-09-01T10:56:35;2.35;;;0.75;;
47669;SDS011;33408;52.062;11.722;2022-09-01T10:59:04;3.20;;;0.95;;
47669;SDS011;33408;52.062;11.722;2022-09-01T11:07:44;2.42;;;0.73;;
47669;SDS011;33408;52.062;11.722;2022-09-01T11:10:22;1.58;;;0.77;;
47669;SDS011;33408;52.062;11.722;2022-09-01T11:13:10;1.40;;;0.50;;
47669;SDS011;33408;52.062;11.722;2022-09-01T11:15:48;2.10;;;0.75;;
47669;SDS011;33408;52.062;11.722;2022-09-01T11:18:15;1.88;;;0.80;;
47669;SDS011;33408;52.062;11.722;2022-09-01T11:20:51;0.85;;;0.63;;
47669;SDS011;33408;52.062;11.722;2022-09-01T11:23:21;1.48;;;0.57;;
47669;SDS011;33408;52.062;11.722;2022-09-01T11:25:50;2.72;;;0.90;;
47669;SDS011;33408;52.062;11.722;2022-09-01T11:31:13;2.53;;;0.65;;
47669;SDS011;33408;52.062;11.722;2022-09-01T11:33:49;3.38;;;0.60;;
47669;SDS011;33408;52.062;11.722;2022-09-01T11:36:25;1.25;;;0.63;;
47669;SDS011;33408;52.062;11.722;2022-09-01T11:38:57;1.63;;;0.60;;
47669;SDS011;33408;52.062;11.722;2022-09-01T11:41:31;2.45;;;0.63;;
47669;SDS011;33408;52.062;11.722;2022-09-01T11:44:02;1.40;;;0.70;;
47669;SDS011;33408;52.062;11.722;2022-09-01T11:46:37;3.72;;;0.73;;
47669;SDS011;33408;52.062;11.722;2022-09-01T11:49:14;9.18;;;0.90;;
47669;SDS011;33408;52.062;11.722;2022-09-01T11:51:52;5.00;;;0.98;;
47669;SDS011;33408;52.062;11.722;2022-09-01T11:54:21;2.97;;;0.55;;
47669;SDS011;33408;52.062;11.722;2022-09-01T11:56:48;4.80;;;0.65;;
47669;SDS011;33408;52.062;11.722;2022-09-01T11:59:28;1.08;;;0.50;;
47669;SDS011;33408;52.062;11.722;2022-09-01T12:01:55;2.80;;;0.70;;
47669;SDS011;33408;52.062;11.722;2022-09-01T12:04:23;5.60;;;0.82;;
47669;SDS011;33408;52.062;11.722;2022-09-01T12:06:55;2.40;;;0.40;;
47669;SDS011;33408;52.062;11.722;2022-09-01T12:09:30;3.83;;;0.70;;
47669;SDS011;33408;52.062;11.722;2022-09-01T12:11:58;2.50;;;0.60;;
47669;SDS011;33408;52.062;11.722;2022-09-01T12:14:25;2.55;;;0.70;;
47669;SDS011;33408;52.062;11.722;2022-09-01T12:16:55;4.88;;;0.90;;
47669;SDS011;33408;52.062;11.722;2022-09-01T12:19:25;2.05;;;0.85;;
47669;SDS011;33408;52.062;11.722;2022-09-01T12:21:58;2.90;;;0.90;;
47669;SDS011;33408;52.062;11.722;2022-09-01T12:24:27;2.15;;;0.50;;
47669;SDS011;33408;52.062;11.722;2022-09-01T12:26:57;4.28;;;0.68;;
47669;SDS011;33408;52.062;11.722;2022-09-01T12:29:25;2.80;;;0.63;;
47669;SDS011;33408;52.062;11.722;2022-09-01T12:31:53;1.42;;;0.70;;
47669;SDS011;33408;52.062;11.722;2022-09-01T12:34:24;5.80;;;0.85;;
47669;SDS011;33408;52.062;11.722;2022-09-01T12:37:05;2.55;;;0.47;;
47669;SDS011;33408;52.062;11.722;2022-09-01T12:39:34;2.00;;;0.70;;
47669;SDS011;33408;52.062;11.722;2022-09-01T12:42:04;5.53;;;0.82;;
47669;SDS011;33408;52.062;11.722;2022-09-01T12:44:42;3.97;;;0.85;;
47669;SDS011;33408;52.062;11.722;2022-09-01T12:47:12;2.67;;;0.43;;
47669;SDS011;33408;52.062;11.722;2022-09-01T12:50:00;1.85;;;0.57;;
47669;SDS011;33408;52.062;11.722;2022-09-01T12:52:30;2.05;;;0.60;;
47669;SDS011;33408;52.062;11.722;2022-09-01T12:55:07;1.25;;;0.60;;
47669;SDS011;33408;52.062;11.722;2022-09-01T12:57:40;2.85;;;0.45;;
47669;SDS011;33408;52.062;11.722;2022-09-01T13:00:16;3.20;;;0.70;;
47669;SDS011;33408;52.062;11.722;2022-09-01T13:02:46;5.03;;;0.88;;
47669;SDS011;33408;52.062;11.722;2022-09-01T13:05:18;0.75;;;0.40;;
47669;SDS011;33408;52.062;11.722;2022-09-01T13:07:47;4.03;;;0.63;;
47669;SDS011;33408;52.062;11.722;2022-09-01T13:10:17;2.78;;;0.77;;
47669;SDS011;33408;52.062;11.722;2022-09-01T13:12:44;1.40;;;0.70;;
47669;SDS011;33408;52.062;11.722;2022-09-01T13:15:11;3.72;;;0.88;;
47669;SDS011;33408;52.062;11.722;2022-09-01T13:17:38;0.93;;;0.50;;
47669;SDS011;33408;52.062;11.722;2022-09-01T13:20:05;2.00;;;0.70;;
47669;SDS011;33408;52.062;11.722;2022-09-01T13:22:33;1.80;;;0.70;;
47669;SDS011;33408;52.062;11.722;2022-09-01T13:25:01;1.38;;;0.65;;
47669;SDS011;33408;52.062;11.722;2022-09-01T13:27:27;1.95;;;0.77;;
47669;SDS011;33408;52.062;11.722;2022-09-01T13:29:54;2.30;;;0.65;;
47669;SDS011;33408;52.062;11.722;2022-09-01T13:32:21;1.92;;;0.65;;
47669;SDS011;33408;52.062;11.722;2022-09-01T13:34:49;2.05;;;0.68;;
47669;SDS011;33408;52.062;11.722;2022-09-01T13:37:17;1.88;;;0.45;;
47669;SDS011;33408;52.062;11.722;2022-09-01T13:39:44;1.15;;;0.60;;
47669;SDS011;33408;52.062;11.722;2022-09-01T13:42:12;2.05;;;0.70;;
47669;SDS011;33408;52.062;11.722;2022-09-01T13:44:39;1.20;;;0.60;;
47669;SDS011;33408;52.062;11.722;2022-09-01T13:47:06;2.72;;;0.57;;
47669;SDS011;33408;52.062;11.722;2022-09-01T13:49:32;2.75;;;0.65;;
47669;SDS011;33408;52.062;11.722;2022-09-01T13:51:59;0.73;;;0.52;;
47669;SDS011;33408;52.062;11.722;2022-09-01T13:54:25;8.05;;;1.05;;
47669;SDS011;33408;52.062;11.722;2022-09-01T13:56:52;3.25;;;0.70;;
47669;SDS011;33408;52.062;11.722;2022-09-01T13:59:20;1.83;;;0.77;;
47669;SDS011;33408;52.062;11.722;2022-09-01T14:01:46;0.95;;;0.50;;
47669;SDS011;33408;52.062;11.722;2022-09-01T14:04:13;1.55;;;0.60;;
47669;SDS011;33408;52.062;11.722;2022-09-01T14:06:40;1.17;;;0.60;;
47669;SDS011;33408;52.062;11.722;2022-09-01T14:09:08;3.00;;;0.70;;
47669;SDS011;33408;52.062;11.722;2022-09-01T14:11:35;1.88;;;0.98;;
47669;SDS011;33408;52.062;11.722;2022-09-01T14:14:01;1.02;;;0.50;;
47669;SDS011;33408;52.062;11.722;2022-09-01T14:16:30;2.05;;;0.70;;
47669;SDS011;33408;52.062;11.722;2022-09-01T14:18:56;1.38;;;0.63;;
47669;SDS011;33408;52.062;11.722;2022-09-01T14:21:24;2.63;;;0.90;;
47669;SDS011;33408;52.062;11.722;2022-09-01T14:23:51;1.95;;;0.68;;
47669;SDS011;33408;52.062;11.722;2022-09-01T14:26:18;2.40;;;0.90;;
47669;SDS011;33408;52.062;11.722;2022-09-01T14:28:46;4.45;;;1.00;;
47669;SDS011;33408;52.062;11.722;2022-09-01T14:31:14;1.27;;;0.50;;
47669;SDS011;33408;52.062;11.722;2022-09-01T14:33:44;2.13;;;0.80;;
47669;SDS011;33408;52.062;11.722;2022-09-01T14:36:15;2.38;;;0.77;;
47669;SDS011;33408;52.062;11.722;2022-09-01T14:38:44;11.27;;;1.02;;
47669;SDS011;33408;52.062;11.722;2022-09-01T14:41:11;2.38;;;0.60;;
47669;SDS011;33408;52.062;11.722;2022-09-01T14:43:38;3.05;;;0.63;;
47669;SDS011;33408;52.062;11.722;2022-09-01T14:46:06;1.33;;;0.60;;
47669;SDS011;33408;52.062;11.722;2022-09-01T14:48:35;2.45;;;0.82;;
47669;SDS011;33408;52.062;11.722;2022-09-01T14:51:05;2.78;;;0.80;;
47669;SDS011;33408;52.062;11.722;2022-09-01T14:53:32;1.83;;;0.82;;
47669;SDS011;33408;52.062;11.722;2022-09-01T14:55:59;1.80;;;0.80;;
47669;SDS011;33408;52.062;11.722;2022-09-01T14:58:27;1.63;;;0.73;;
47669;SDS011;33408;52.062;11.722;2022-09-01T15:00:54;1.33;;;0.60;;
47669;SDS011;33408;52.062;11.722;2022-09-01T15:03:21;2.50;;;0.50;;